Time;durP1;ratioP1;P1;durP2;ratioP2;P2;SDS_P1;SDS_P2;PMS_P1;PMS_P2;Temp;Humidity;BMP_temperature;BMP_pressure;BME280_temperature;BME280_humidity;BME280_pressure;Samples;Min_cycle;Max_cycle;Signal;HPM_P1;HPM_P2
2022/01/31 00:01:32;;;;;;;9.73;3.33;;;;;;;6.19;45.83;99213.47;6306018;22;20002;-77
2022/01/31 00:03:57;;;;;;;15.40;4.80;;;;;;;5.98;46.18;99178.03;6306105;22;19995;-77
2022/01/31 00:06:23;;;;;;;11.43;4.07;;;;;;;6.20;46.44;99218.56;6279131;22;20009;-78
2022/01/31 00:08:50;;;;;;;13.00;3.77;;;;;;;6.34;46.83;99248.59;6306107;22;20074;-78
2022/01/31 00:11:16;;;;;;;12.87;4.17;;;;;;;5.77;46.80;99153.13;6306256;22;20019;-77
2022/01/31 00:13:45;;;;;;;14.07;4.03;;;;;;;6.12;47.53;99249.16;6278787;22;20345;-78
2022/01/31 00:16:16;;;;;;;12.70;3.93;;;;;;;6.07;47.26;99205.09;6306031;22;19999;-77
2022/01/31 00:18:41;;;;;;;16.93;4.07;;;;;;;6.00;47.41;99190.97;6305998;22;19996;-77
2022/01/31 00:21:07;;;;;;;10.50;3.57;;;;;;;6.12;47.10;99220.34;6306105;22;19998;-76
2022/01/31 00:23:32;;;;;;;16.67;4.57;;;;;;;5.54;47.62;99137.97;6306141;22;20463;-77
2022/01/31 00:25:58;;;;;;;16.53;4.20;;;;;;;5.83;48.08;99190.00;6306041;22;19995;-77
2022/01/31 00:28:23;;;;;;;9.93;3.80;;;;;;;5.71;47.82;99184.22;6306497;22;19995;-77
2022/01/31 00:30:48;;;;;;;15.87;4.57;;;;;;;6.00;48.03;99223.22;6305850;22;20029;-78
2022/01/31 00:33:14;;;;;;;15.50;4.03;;;;;;;6.19;48.21;99250.19;6306019;22;20027;-77
2022/01/31 00:35:40;;;;;;;18.13;4.53;;;;;;;5.74;48.42;99170.81;6305995;22;19999;-77
2022/01/31 00:38:05;;;;;;;15.00;4.07;;;;;;;5.80;48.32;99179.03;6306178;22;19997;-77
2022/01/31 00:40:31;;;;;;;14.80;3.97;;;;;;;5.79;48.41;99180.81;6305814;22;19991;-77
2022/01/31 00:42:56;;;;;;;13.13;3.80;;;;;;;5.82;48.59;99193.59;6305875;22;20062;-77
2022/01/31 00:45:30;;;;;;;11.87;3.93;;;;;;;5.88;48.58;99187.75;6306013;22;20018;-77
2022/01/31 00:48:42;;;;;;;12.83;3.40;;;;;;;6.12;48.87;99236.06;6278286;22;20056;-77
2022/01/31 00:50:47;;;;;;;17.70;4.03;;;;;;;6.14;48.86;99240.16;6288749;22;20402;-76
2022/01/31 00:53:13;;;;;;;17.40;4.00;;;;;;;6.07;48.52;99225.22;6305825;22;20010;-77
2022/01/31 00:55:38;;;;;;;19.57;4.53;;;;;;;5.83;48.66;99202.28;6305536;22;20353;-77
2022/01/31 00:58:04;;;;;;;21.53;5.33;;;;;;;6.14;48.54;99253.28;6305758;22;19999;-77
2022/01/31 01:00:30;;;;;;;16.23;4.17;;;;;;;5.67;48.13;99179.44;6305792;22;20066;-77
2022/01/31 01:02:55;;;;;;;16.30;4.03;;;;;;;5.59;47.94;99185.47;6305729;22;20031;-75
2022/01/31 01:05:20;;;;;;;19.80;4.40;;;;;;;5.70;48.43;99190.44;6278224;22;20427;-76
2022/01/31 01:07:46;;;;;;;16.20;4.10;;;;;;;4.40;48.42;98997.72;6305373;22;20023;-77
2022/01/31 01:10:16;;;;;;;11.87;3.60;;;;;;;5.61;47.87;99172.22;6305409;22;20003;-77
2022/01/31 01:12:42;;;;;;;12.87;4.17;;;;;;;5.72;47.91;99191.09;6305008;22;20054;-76
2022/01/31 01:15:08;;;;;;;17.93;4.53;;;;;;;6.06;47.90;99250.63;6305448;22;20027;-78
2022/01/31 01:17:34;;;;;;;22.37;4.67;;;;;;;5.54;48.24;99173.81;6305811;22;19999;-76
2022/01/31 01:19:59;;;;;;;10.07;3.43;;;;;;;6.07;47.99;99269.78;6305383;22;20102;-79
2022/01/31 01:22:25;;;;;;;15.00;3.93;;;;;;;6.01;47.59;99255.50;6305658;22;20003;-76
2022/01/31 01:24:50;;;;;;;14.37;3.67;;;;;;;6.07;47.39;99261.91;6305188;22;19995;-76
2022/01/31 01:27:19;;;;;;;15.67;3.77;;;;;;;6.13;47.57;99263.91;6305448;22;20010;-76
2022/01/31 01:29:45;;;;;;;11.77;3.70;;;;;;;5.83;47.81;99223.25;6278148;22;20279;-76
2022/01/31 01:32:11;;;;;;;21.00;4.37;;;;;;;5.90;47.68;99232.97;6277997;22;20446;-75
2022/01/31 01:34:37;;;;;;;18.10;4.53;;;;;;;5.56;47.63;99191.00;6277735;22;20071;-75
2022/01/31 01:37:03;;;;;;;15.53;4.13;;;;;;;5.46;47.71;99177.22;6305254;22;19995;-76
2022/01/31 01:39:29;;;;;;;11.67;4.33;;;;;;;6.02;47.41;99262.38;6305327;22;19999;-76
2022/01/31 01:41:54;;;;;;;18.77;4.23;;;;;;;5.88;47.03;99231.47;6278022;22;20505;-76
2022/01/31 01:44:38;;;;;;;10.70;3.83;;;;;;;5.63;46.89;99207.75;6305033;22;19991;-75
2022/01/31 01:47:04;;;;;;;14.57;3.80;;;;;;;5.61;46.97;99183.50;6305166;22;19995;-77
2022/01/31 01:49:29;;;;;;;12.13;3.93;;;;;;;5.82;47.05;99208.50;6305411;22;19995;-77
2022/01/31 01:51:54;;;;;;;12.27;4.23;;;;;;;5.85;46.95;99226.53;6305330;22;20018;-76
2022/01/31 01:54:20;;;;;;;14.40;3.37;;;;;;;5.85;46.77;99232.59;6305146;22;20007;-77
2022/01/31 01:56:45;;;;;;;16.70;3.67;;;;;;;5.66;46.45;99189.09;6277823;22;20007;-76
2022/01/31 01:59:11;;;;;;;20.07;4.43;;;;;;;5.85;46.58;99239.63;6305024;22;20003;-76
2022/01/31 02:01:36;;;;;;;16.53;3.57;;;;;;;5.60;46.66;99187.09;6305174;22;20002;-76
2022/01/31 02:04:02;;;;;;;11.47;3.87;;;;;;;6.09;46.61;99255.53;6305034;22;20318;-76
2022/01/31 02:06:27;;;;;;;16.97;3.97;;;;;;;5.80;46.59;99229.63;6305152;22;20003;-76
2022/01/31 02:08:53;;;;;;;11.47;3.77;;;;;;;5.54;46.87;99174.63;6305115;22;19995;-76
2022/01/31 02:11:20;;;;;;;13.33;3.93;;;;;;;5.80;47.00;99210.47;6277834;22;19992;-77
2022/01/31 02:13:46;;;;;;;19.60;3.17;;;;;;;5.51;46.65;99174.13;6305627;22;19996;-77
2022/01/31 02:16:11;;;;;;;13.20;3.20;;;;;;;6.01;46.83;99245.03;6305735;22;20002;-76
2022/01/31 02:18:44;;;;;;;15.23;3.73;;;;;;;5.76;46.88;99215.19;6305263;22;20405;-77
2022/01/31 02:21:10;;;;;;;13.80;2.93;;;;;;;5.75;46.78;99218.78;6277687;22;20071;-76
2022/01/31 02:23:35;;;;;;;15.10;3.30;;;;;;;5.88;46.99;99236.69;6306078;22;20022;-76
2022/01/31 02:26:03;;;;;;;9.43;3.33;;;;;;;5.78;46.84;99221.09;6307061;22;19991;-78
2022/01/31 02:28:34;;;;;;;17.77;3.63;;;;;;;5.94;46.48;99254.44;6307077;22;20003;-77
2022/01/31 02:31:01;;;;;;;15.87;3.43;;;;;;;5.92;46.38;99256.41;6306903;22;19996;-77
2022/01/31 02:33:27;;;;;;;10.63;3.20;;;;;;;5.51;46.25;99185.41;6307090;22;19995;-77
2022/01/31 02:35:56;;;;;;;14.57;4.27;;;;;;;5.62;46.34;99200.03;6306917;22;20003;-77
2022/01/31 02:38:22;;;;;;;17.57;4.00;;;;;;;5.56;45.94;99187.56;6307216;22;19998;-76
2022/01/31 02:40:48;;;;;;;10.70;3.03;;;;;;;5.39;46.02;99165.72;6279573;22;20455;-76
2022/01/31 02:43:26;;;;;;;11.63;3.20;;;;;;;5.45;45.93;99177.34;6279414;22;19999;-78
2022/01/31 02:45:52;;;;;;;9.87;2.90;;;;;;;5.93;45.53;99255.44;6279447;22;20364;-76
2022/01/31 02:48:20;;;;;;;13.37;3.13;;;;;;;5.92;45.66;99262.47;6306748;22;19999;-76
2022/01/31 02:50:46;;;;;;;15.40;3.57;;;;;;;5.77;45.70;99248.25;6306817;22;20002;-78
2022/01/31 02:55:47;;;;;;;16.67;3.40;;;;;;;5.90;45.39;99267.03;6306928;22;20094;-76
2022/01/31 02:58:12;;;;;;;17.30;2.97;;;;;;;5.46;45.10;99210.41;6306804;22;20023;-76
2022/01/31 03:00:39;;;;;;;11.73;3.00;;;;;;;5.94;45.07;99252.66;6279671;22;20002;-76
2022/01/31 03:03:05;;;;;;;17.80;3.60;;;;;;;5.72;45.12;99232.19;6308216;22;19999;-75
2022/01/31 03:05:31;;;;;;;12.97;2.80;;;;;;;5.85;44.70;99242.25;6324903;22;20059;-77
2022/01/31 03:07:58;;;;;;;11.73;3.27;;;;;;;5.92;44.92;99252.00;6337911;22;19983;-77
2022/01/31 03:10:23;;;;;;;11.23;2.97;;;;;;;5.59;44.73;99219.50;6337549;22;19991;-77
2022/01/31 03:12:49;;;;;;;10.67;2.60;;;;;;;5.45;45.02;99193.06;6310291;22;19992;-76
2022/01/31 03:15:14;;;;;;;12.00;3.17;;;;;;;5.95;44.47;99269.22;6306825;22;20074;-76
2022/01/31 03:17:43;;;;;;;11.00;3.63;;;;;;;5.52;44.67;99201.94;6306754;22;19995;-77
2022/01/31 03:20:09;;;;;;;14.83;3.53;;;;;;;5.92;44.40;99259.84;6306839;22;20053;-76
2022/01/31 03:22:34;;;;;;;11.73;3.23;;;;;;;5.25;44.40;99174.13;6306697;22;19995;-76
2022/01/31 03:25:00;;;;;;;10.93;2.70;;;;;;;5.35;44.43;99196.59;6306547;22;20030;-76
2022/01/31 03:27:25;;;;;;;14.70;3.13;;;;;;;5.91;44.35;99280.97;6279217;22;19996;-76
2022/01/31 03:29:51;;;;;;;11.63;3.40;;;;;;;5.64;44.37;99253.09;6306553;22;20006;-77
2022/01/31 03:32:16;;;;;;;14.77;3.27;;;;;;;5.85;44.33;99268.44;6279071;22;19999;-77
2022/01/31 03:34:42;;;;;;;11.03;3.20;;;;;;;5.87;44.21;99274.34;6305579;22;20070;-77
2022/01/31 03:37:07;;;;;;;13.07;3.33;;;;;;;5.49;43.90;99229.25;6306444;22;19995;-78
2022/01/31 03:39:32;;;;;;;17.40;3.20;;;;;;;5.38;44.12;99208.56;6307888;22;19995;-77
2022/01/31 03:41:58;;;;;;;13.97;2.97;;;;;;;5.61;44.46;99248.16;6306776;22;19995;-76
2022/01/31 03:44:24;;;;;;;10.83;2.87;;;;;;;5.16;44.01;99173.22;6306539;22;20002;-76
2022/01/31 03:46:49;;;;;;;11.43;2.50;;;;;;;5.47;44.11;99219.91;6337411;22;19984;-76
2022/01/31 03:49:15;;;;;;;11.93;3.20;;;;;;;5.46;44.33;99213.84;6284746;22;20001;-77
2022/01/31 03:51:40;;;;;;;9.27;2.53;;;;;;;5.24;44.31;99186.38;6306205;22;20460;-77
2022/01/31 03:54:06;;;;;;;14.27;3.10;;;;;;;5.66;44.03;99246.72;6306403;22;20008;-76
2022/01/31 03:56:31;;;;;;;8.60;2.63;;;;;;;5.29;43.98;99207.69;6306123;22;20003;-76
2022/01/31 03:58:56;;;;;;;13.10;2.77;;;;;;;5.31;44.06;99210.97;6278922;22;20006;-76
2022/01/31 04:01:23;;;;;;;12.93;3.13;;;;;;;5.78;44.11;99280.53;6278699;22;19999;-76
2022/01/31 04:03:49;;;;;;;9.67;2.83;;;;;;;5.47;44.17;99220.75;6306199;22;19991;-76
2022/01/31 04:06:14;;;;;;;11.87;3.43;;;;;;;5.75;44.36;99269.38;6306189;22;20330;-76
2022/01/31 04:08:40;;;;;;;9.00;2.80;;;;;;;5.46;44.40;99231.38;6306228;22;19999;-76
2022/01/31 04:11:05;;;;;;;10.90;3.40;;;;;;;5.54;44.30;99247.13;6306296;22;20069;-78
2022/01/31 04:13:30;;;;;;;10.37;2.80;;;;;;;5.55;44.46;99264.50;6306085;22;19999;-75
2022/01/31 04:15:56;;;;;;;11.80;3.20;;;;;;;5.54;44.39;99268.91;6305931;22;20149;-76
2022/01/31 04:18:21;;;;;;;11.57;3.30;;;;;;;5.67;44.40;99292.91;6306021;22;20057;-76
2022/01/31 04:20:47;;;;;;;6.93;2.57;;;;;;;5.53;44.01;99256.78;6305969;22;19999;-77
2022/01/31 04:23:15;;;;;;;10.70;3.00;;;;;;;5.50;44.48;99258.88;6306646;22;20066;-77
2022/01/31 04:28:24;;;;;;;8.10;2.97;;;;;;;5.82;44.27;99313.28;6306397;22;20482;-77
2022/01/31 04:31:01;;;;;;;8.40;3.33;;;;;;;5.31;44.65;99245.00;6278584;22;19995;-77
2022/01/31 04:33:28;;;;;;;11.20;4.27;;;;;;;5.78;44.47;99310.16;6306009;22;19999;-77
2022/01/31 04:35:54;;;;;;;10.13;3.00;;;;;;;5.11;44.82;99230.41;6305979;22;20015;-77
2022/01/31 04:38:21;;;;;;;8.00;3.20;;;;;;;5.45;44.95;99269.00;6306166;22;20026;-77
2022/01/31 04:40:46;;;;;;;13.53;4.37;;;;;;;5.22;44.77;99232.00;6305901;22;20023;-76
2022/01/31 04:43:12;;;;;;;8.13;3.70;;;;;;;5.70;44.99;99316.16;6305911;22;20070;-77
2022/01/31 04:45:38;;;;;;;11.63;3.63;;;;;;;5.12;45.14;99237.28;6306004;22;20062;-76
2022/01/31 04:48:03;;;;;;;10.93;3.37;;;;;;;5.45;44.66;99284.69;6305764;22;20022;-77
2022/01/31 04:50:29;;;;;;;10.03;3.90;;;;;;;5.65;45.03;99336.75;6305543;22;19999;-77
2022/01/31 04:52:54;;;;;;;23.07;7.23;;;;;;;5.33;44.93;99257.94;6305549;22;20088;-77
2022/01/31 04:55:20;;;;;;;10.10;3.33;;;;;;;5.39;44.66;99286.97;6305616;22;20037;-77
2022/01/31 04:57:45;;;;;;;9.63;4.53;;;;;;;5.46;44.96;99291.59;6305707;22;20403;-77
2022/01/31 05:00:11;;;;;;;10.93;2.80;;;;;;;5.44;44.77;99302.22;6278560;22;20472;-77
2022/01/31 05:02:37;;;;;;;10.53;3.90;;;;;;;5.68;45.05;99346.94;6305795;22;20011;-77
2022/01/31 05:05:03;;;;;;;18.43;5.83;;;;;;;5.70;44.83;99339.75;6305341;22;20070;-77
2022/01/31 05:07:29;;;;;;;16.00;5.83;;;;;;;5.24;45.10;99264.09;6305391;22;20003;-77
2022/01/31 05:09:54;;;;;;;14.27;7.23;;;;;;;5.63;44.88;99317.75;6278176;22;20348;-77
2022/01/31 05:12:20;;;;;;;10.60;3.67;;;;;;;5.21;44.95;99270.44;6305431;22;19999;-77
2022/01/31 05:14:45;;;;;;;12.20;3.70;;;;;;;5.35;45.00;99297.88;6305483;22;20471;-77
2022/01/31 05:17:11;;;;;;;7.50;3.10;;;;;;;5.15;45.34;99268.41;6278282;22;20404;-77
2022/01/31 05:19:36;;;;;;;12.80;2.93;;;;;;;5.47;44.62;99322.03;6305557;22;20006;-77
2022/01/31 05:22:02;;;;;;;12.80;3.90;;;;;;;5.25;45.03;99282.25;6278202;22;20073;-77
2022/01/31 05:24:28;;;;;;;13.87;4.43;;;;;;;5.19;45.08;99279.38;6305310;22;20025;-77
2022/01/31 05:26:53;;;;;;;9.67;3.50;;;;;;;5.56;45.28;99336.84;6305201;22;19995;-77
2022/01/31 05:29:20;;;;;;;13.63;3.40;;;;;;;5.48;45.35;99323.69;6305623;22;20056;-77
2022/01/31 05:31:46;;;;;;;10.23;3.80;;;;;;;5.31;45.33;99299.97;6305414;22;20074;-77
2022/01/31 05:34:12;;;;;;;11.87;3.47;;;;;;;5.49;45.21;99348.88;6305340;22;20418;-77
2022/01/31 05:36:42;;;;;;;11.23;3.37;;;;;;;5.51;45.16;99336.47;6305389;22;20074;-77
2022/01/31 05:39:08;;;;;;;12.90;3.63;;;;;;;5.21;45.24;99299.22;6305432;22;20002;-77
2022/01/31 05:41:33;;;;;;;10.63;3.67;;;;;;;5.43;44.99;99337.22;6305569;22;20106;-77
2022/01/31 05:43:59;;;;;;;9.57;3.27;;;;;;;5.27;45.04;99305.66;6305318;22;20037;-76
2022/01/31 05:46:24;;;;;;;11.40;3.50;;;;;;;5.01;44.95;99284.63;6305430;22;20005;-77
2022/01/31 05:48:51;;;;;;;11.23;4.30;;;;;;;5.56;44.95;99345.50;6304989;22;20437;-78
2022/01/31 05:51:18;;;;;;;11.93;3.93;;;;;;;5.57;44.77;99349.78;6304927;22;20023;-77
2022/01/31 05:53:45;;;;;;;14.10;4.93;;;;;;;5.23;45.03;99323.47;6305301;22;20002;-77
2022/01/31 05:56:12;;;;;;;10.50;3.90;;;;;;;5.58;44.65;99355.84;6305173;22;20003;-77
2022/01/31 05:58:37;;;;;;;10.10;4.10;;;;;;;5.14;44.66;99284.25;6305126;22;19995;-77
2022/01/31 06:01:04;;;;;;;11.33;5.23;;;;;;;5.22;44.31;99273.88;6305280;22;20002;-77
2022/01/31 06:03:30;;;;;;;12.00;5.10;;;;;;;5.28;44.17;99278.50;6305174;22;19999;-77
2022/01/31 06:05:55;;;;;;;10.33;4.00;;;;;;;5.27;44.53;99310.91;6305695;22;20026;-77
2022/01/31 06:08:21;;;;;;;11.43;3.50;;;;;;;5.21;43.95;99295.78;6305196;22;19995;-77
2022/01/31 06:10:48;;;;;;;11.30;3.93;;;;;;;5.07;44.37;99261.28;6305206;22;20009;-77
2022/01/31 06:13:16;;;;;;;12.67;4.10;;;;;;;5.71;44.17;99358.91;6304998;22;19995;-77
2022/01/31 06:15:42;;;;;;;11.70;4.77;;;;;;;5.69;43.76;99379.19;6277411;22;19999;-77
2022/01/31 06:18:07;;;;;;;12.37;3.43;;;;;;;5.62;44.21;99383.38;6305391;22;19996;-77
2022/01/31 06:20:33;;;;;;;11.73;3.33;;;;;;;5.66;43.91;99387.34;6278121;22;20022;-77
2022/01/31 06:22:58;;;;;;;14.50;5.10;;;;;;;5.42;43.92;99356.53;6278025;22;20033;-77
2022/01/31 06:25:24;;;;;;;13.40;3.90;;;;;;;5.21;43.65;99301.84;6304780;22;19991;-77
2022/01/31 06:27:51;;;;;;;14.27;4.77;;;;;;;5.26;43.38;99319.72;6305413;22;20401;-77
2022/01/31 06:30:16;;;;;;;10.30;3.63;;;;;;;5.72;43.61;99394.59;6305199;22;20057;-77
2022/01/31 06:32:42;;;;;;;11.33;3.47;;;;;;;5.02;43.39;99281.84;6304762;22;20070;-77
2022/01/31 06:35:08;;;;;;;14.93;4.13;;;;;;;5.80;43.68;99396.47;6305049;22;20007;-77
2022/01/31 06:37:34;;;;;;;15.77;4.27;;;;;;;5.43;43.41;99335.44;6305118;22;20452;-77
2022/01/31 06:40:00;;;;;;;11.53;4.10;;;;;;;5.53;43.36;99376.41;6304630;22;20459;-77
2022/01/31 06:42:26;;;;;;;13.13;4.43;;;;;;;5.59;43.37;99360.09;6304686;22;19999;-76
2022/01/31 06:44:51;;;;;;;17.20;5.07;;;;;;;5.43;43.45;99345.06;6305114;22;19995;-76
2022/01/31 06:47:19;;;;;;;11.00;4.10;;;;;;;5.37;42.93;99324.72;6305447;22;19991;-76
2022/01/31 06:49:44;;;;;;;17.63;6.13;;;;;;;5.72;43.00;99397.22;6305169;22;20018;-75
2022/01/31 06:52:10;;;;;;;21.07;6.43;;;;;;;5.97;43.17;99422.69;6303177;22;20030;-76
2022/01/31 06:54:35;;;;;;;12.10;4.50;;;;;;;5.98;42.79;99419.09;6303007;22;20038;-76
2022/01/31 06:57:01;;;;;;;11.03;4.17;;;;;;;5.77;42.75;99391.53;6276981;22;20006;-77
2022/01/31 06:59:27;;;;;;;15.00;4.87;;;;;;;5.64;42.85;99379.63;6277432;22;20326;-75
2022/01/31 07:01:52;;;;;;;12.73;4.10;;;;;;;5.38;42.77;99319.34;6305033;22;20005;-76
2022/01/31 07:04:18;;;;;;;14.70;4.60;;;;;;;5.88;43.06;99397.34;6304522;22;20002;-77
2022/01/31 07:06:43;;;;;;;14.70;4.40;;;;;;;6.02;42.83;99419.63;6304547;22;20001;-76
2022/01/31 07:09:08;;;;;;;18.17;6.27;;;;;;;5.80;42.44;99396.47;6278238;22;20003;-76
2022/01/31 07:11:39;;;;;;;12.63;3.90;;;;;;;6.13;42.49;99431.66;6306993;22;20003;-77
2022/01/31 07:14:29;;;;;;;14.60;5.37;;;;;;;5.93;42.68;99394.31;6306151;22;20002;-76
2022/01/31 07:16:49;;;;;;;16.93;5.70;;;;;;;5.53;42.74;99322.25;6304910;22;20074;-77
2022/01/31 07:19:15;;;;;;;21.20;5.87;;;;;;;6.24;42.41;99442.72;6278678;22;19996;-77
2022/01/31 07:21:48;;;;;;;17.03;5.97;;;;;;;5.94;42.44;99390.72;6305185;22;20338;-77
2022/01/31 07:24:30;;;;;;;13.97;4.80;;;;;;;6.29;41.80;99431.78;6304540;22;19997;-77
2022/01/31 07:26:55;;;;;;;;;;;;;;;6.08;42.03;99426.88;6305516;22;19995;-77
2022/01/31 07:29:21;;;;;;;11.73;4.43;;;;;;;6.24;42.22;99437.50;6276869;22;19961;-77
2022/01/31 07:31:48;;;;;;;17.03;5.60;;;;;;;6.33;41.92;99417.38;6304493;22;20666;-77
2022/01/31 07:34:15;;;;;;;13.63;5.30;;;;;;;6.31;41.92;99409.69;6304109;22;20004;-77
2022/01/31 07:36:42;;;;;;;12.27;4.60;;;;;;;5.87;41.30;99322.34;6304608;22;20349;-77
2022/01/31 07:39:07;;;;;;;15.60;5.27;;;;;;;5.94;41.78;99330.44;6306094;22;20006;-76
2022/01/31 07:41:32;;;;;;;17.23;5.50;;;;;;;5.93;41.61;99329.63;6279082;22;19999;-76
2022/01/31 07:43:59;;;;;;;13.03;5.43;;;;;;;5.94;41.38;99306.84;6306868;22;19999;-76
2022/01/31 07:46:24;;;;;;;13.03;4.70;;;;;;;6.50;41.37;99389.47;6306800;22;19995;-76
2022/01/31 07:48:52;;;;;;;11.30;5.17;;;;;;;6.03;41.22;99350.50;6278933;22;20532;-76
2022/01/31 07:51:18;;;;;;;12.80;4.80;;;;;;;6.10;40.83;99333.19;6305598;22;20003;-78
2022/01/31 07:53:43;;;;;;;18.83;7.97;;;;;;;6.60;41.06;99401.50;6303824;22;20475;-76
2022/01/31 07:56:10;;;;;;;15.93;5.47;;;;;;;6.67;41.17;99409.56;6303909;22;20003;-76
2022/01/31 07:58:36;;;;;;;8.43;3.90;;;;;;;6.57;40.91;99380.00;6303842;22;20360;-76
2022/01/31 08:01:01;;;;;;;8.27;4.00;;;;;;;6.74;40.72;99392.25;6291694;22;19999;-76
2022/01/31 08:03:27;;;;;;;10.07;4.60;;;;;;;6.74;40.91;99389.63;6304485;22;19999;-79
2022/01/31 08:05:53;;;;;;;12.73;4.37;;;;;;;5.91;40.59;99266.06;6330531;22;20006;-76
2022/01/31 08:08:18;;;;;;;13.03;4.47;;;;;;;6.42;40.58;99318.63;6281113;22;20449;-78
2022/01/31 08:10:44;;;;;;;20.30;5.30;;;;;;;6.21;40.33;99304.09;6304349;22;20499;-76
2022/01/31 08:13:09;;;;;;;8.23;3.73;;;;;;;6.68;39.96;99349.06;6304777;22;20007;-77
2022/01/31 08:15:48;;;;;;;11.25;3.58;;;;;;;6.54;40.44;99322.59;6276249;22;20004;-77
2022/01/31 08:18:14;;;;;;;8.57;3.40;;;;;;;6.86;39.92;99371.78;6302800;22;20411;-77
2022/01/31 08:20:40;;;;;;;10.17;2.70;;;;;;;6.61;40.12;99331.47;6302206;22;20004;-77
2022/01/31 08:23:07;;;;;;;12.93;3.93;;;;;;;6.75;39.54;99351.91;6276484;22;19996;-77
2022/01/31 08:25:36;;;;;;;11.30;3.90;;;;;;;6.88;39.79;99354.06;6276871;22;20453;-78
2022/01/31 08:28:07;;;;;;;9.63;3.47;;;;;;;6.86;39.53;99342.91;6277121;22;20463;-77
2022/01/31 08:30:41;;;;;;;8.77;3.40;;;;;;;6.47;39.45;99283.06;6303332;22;20002;-77
2022/01/31 08:33:14;;;;;;;11.87;4.07;;;;;;;6.86;39.33;99340.28;6275697;22;20015;-77
2022/01/31 08:35:48;;;;;;;7.20;3.20;;;;;;;6.68;38.62;99312.31;6303632;22;20083;-77
2022/01/31 08:38:16;;;;;;;10.33;3.80;;;;;;;7.06;39.04;99393.34;6302330;22;20074;-77
2022/01/31 08:40:42;;;;;;;9.67;3.40;;;;;;;6.75;38.24;99328.28;6303328;22;20066;-77
2022/01/31 08:43:07;;;;;;;9.97;3.43;;;;;;;6.92;38.77;99348.34;6276752;22;19996;-77
2022/01/31 08:45:34;;;;;;;8.77;3.70;;;;;;;7.17;38.42;99414.06;6303967;22;19991;-77
2022/01/31 08:48:00;;;;;;;7.73;4.20;;;;;;;6.80;38.13;99312.88;6276631;22;20006;-76
2022/01/31 08:50:26;;;;;;;10.00;3.10;;;;;;;7.18;37.66;99384.19;6301325;22;20348;-77
2022/01/31 08:52:51;;;;;;;10.73;3.83;;;;;;;7.05;37.48;99352.31;6252961;22;1142157;-77
2022/01/31 08:55:17;;;;;;;11.70;3.27;;;;;;;7.23;37.15;99380.09;6304369;22;20057;-78
2022/01/31 08:57:43;;;;;;;8.70;3.00;;;;;;;7.20;37.49;99388.28;6304784;22;19999;-77
2022/01/31 09:00:09;;;;;;;10.67;3.53;;;;;;;6.97;37.12;99337.38;6305201;22;19999;-78
2022/01/31 09:02:40;;;;;;;10.60;3.70;;;;;;;6.75;37.85;99294.19;6304128;22;20026;-77
2022/01/31 09:05:07;;;;;;;10.27;3.53;;;;;;;7.38;37.93;99379.47;6278037;22;20338;-78
2022/01/31 09:07:33;;;;;;;10.50;3.53;;;;;;;7.36;37.46;99371.75;6306234;22;19999;-78
2022/01/31 09:10:00;;;;;;;6.97;4.20;;;;;;;7.20;37.35;99330.53;6303275;22;20072;-78
2022/01/31 09:12:29;;;;;;;8.37;3.93;;;;;;;7.51;37.14;99378.03;6303801;22;20002;-78
2022/01/31 09:14:55;;;;;;;8.75;3.25;;;;;;;7.34;36.75;99329.06;6276713;22;20061;-78
2022/01/31 09:17:20;;;;;;;7.73;3.00;;;;;;;7.46;36.32;99358.50;6303551;22;19999;-78
2022/01/31 09:19:46;;;;;;;10.67;4.17;;;;;;;7.22;36.06;99270.81;6304807;22;19999;-77
2022/01/31 09:22:12;;;;;;;10.52;3.53;;;;;;;7.73;36.08;99373.13;6277893;22;20433;-77
2022/01/31 09:24:39;;;;;;;13.40;4.10;;;;;;;7.79;35.80;99340.94;6303792;22;19995;-75
2022/01/31 09:27:06;;;;;;;14.13;4.38;;;;;;;7.35;35.38;99259.81;6303890;22;20045;-78
2022/01/31 09:29:32;;;;;;;9.60;4.00;;;;;;;7.63;35.63;99291.84;6302789;22;19999;-76
2022/01/31 09:31:59;;;;;;;10.10;3.63;;;;;;;7.67;35.39;99276.56;6275291;22;20070;-77
2022/01/31 09:34:26;;;;;;;14.90;4.90;;;;;;;7.60;35.20;99250.97;6303598;22;20009;-77
2022/01/31 09:36:51;;;;;;;12.70;4.30;;;;;;;8.10;35.43;99314.78;6304234;22;20002;-77
2022/01/31 09:39:17;;;;;;;14.90;3.43;;;;;;;7.95;35.18;99286.53;6277045;22;20003;-76
2022/01/31 09:41:45;;;;;;;10.35;3.22;;;;;;;8.13;34.33;99303.91;6304184;22;20066;-77
2022/01/31 09:44:21;;;;;;;12.82;3.83;;;;;;;8.19;33.99;99305.91;6304556;22;20003;-77
2022/01/31 09:49:30;;;;;;;9.18;3.65;;;;;;;7.94;34.45;99240.22;6305699;22;20010;-77
2022/01/31 09:51:56;;;;;;;6.50;3.35;;;;;;;8.13;34.05;99269.72;6304686;22;20094;-77
2022/01/31 09:54:24;;;;;;;9.15;4.45;;;;;;;8.11;34.54;99240.97;6303047;22;20411;-76
2022/01/31 09:56:50;;;;;;;8.18;3.47;;;;;;;7.98;34.25;99204.72;6304701;22;20010;-76
2022/01/31 09:59:17;;;;;;;12.20;4.30;;;;;;;7.81;34.17;99179.47;6305388;22;19995;-77
2022/01/31 10:01:50;;;;;;;11.30;5.18;;;;;;;8.65;34.40;99279.78;6277287;22;20356;-77
2022/01/31 10:04:24;;;;;;;8.50;3.20;;;;;;;8.30;33.55;99216.13;6303774;22;20138;-76
2022/01/31 10:06:53;;;;;;;7.45;3.53;;;;;;;8.79;33.72;99268.53;6304452;22;19999;-77
2022/01/31 10:09:30;;;;;;;12.20;4.78;;;;;;;8.71;33.38;99235.16;6305363;22;20011;-77
2022/01/31 10:12:20;;;;;;;11.18;4.18;;;;;;;8.88;32.54;99260.41;6305460;22;20022;-77
2022/01/31 10:17:30;;;;;;;8.15;3.15;;;;;;;8.85;33.07;99252.84;6304320;22;20025;-77
2022/01/31 10:20:00;;;;;;;7.95;2.63;;;;;;;8.55;33.23;99203.69;6304153;22;20433;-77
2022/01/31 10:22:28;;;;;;;9.82;3.47;;;;;;;8.45;32.89;99176.78;6277363;22;20084;-77
2022/01/31 10:24:55;;;;;;;12.43;2.80;;;;;;;8.48;32.71;99193.03;6304509;22;20453;-77
2022/01/31 10:27:24;;;;;;;7.18;2.33;;;;;;;8.93;32.32;99256.47;6305286;22;19999;-77
2022/01/31 10:30:07;;;;;;;9.50;4.22;;;;;;;8.91;32.32;99244.25;6277029;22;20423;-78
2022/01/31 10:32:36;;;;;;;5.45;2.85;;;;;;;8.90;32.26;99211.03;6277263;22;20002;-77
2022/01/31 10:35:08;;;;;;;6.40;2.80;;;;;;;9.10;32.06;99234.28;6276335;22;20007;-77
2022/01/31 10:37:36;;;;;;;7.63;4.03;;;;;;;9.21;31.95;99231.22;6305114;22;20010;-78
2022/01/31 10:56:53;;;;;;;10.40;3.78;;;;;;;9.44;30.70;99189.88;6306137;22;20076;-77
2022/01/31 10:59:25;;;;;;;10.55;5.53;;;;;;;9.46;30.55;99187.03;6278293;22;20452;-77
2022/01/31 11:01:52;;;;;;;8.15;4.00;;;;;;;9.00;30.48;99112.56;6305547;22;19999;-77
2022/01/31 11:04:18;;;;;;;8.43;4.78;;;;;;;9.25;30.03;99166.66;6304833;22;20002;-80
2022/01/31 11:06:46;;;;;;;11.27;5.93;;;;;;;9.39;30.12;99170.31;6304833;22;20433;-77
2022/01/31 11:09:17;;;;;;;7.63;3.55;;;;;;;8.87;30.03;99092.91;6278402;22;20194;-77
2022/01/31 11:11:50;;;;;;;5.93;2.45;;;;;;;9.32;29.61;99164.13;6304901;22;20407;-77
2022/01/31 11:14:17;;;;;;;8.70;4.90;;;;;;;9.38;30.13;99156.31;6277524;22;19999;-77
2022/01/31 11:16:47;;;;;;;7.07;3.08;;;;;;;9.16;29.59;99112.41;6278109;22;20441;-77
2022/01/31 11:19:16;;;;;;;7.43;3.47;;;;;;;9.38;30.00;99148.41;6304807;22;19999;-76
2022/01/31 11:21:45;;;;;;;6.10;2.95;;;;;;;9.44;29.68;99129.25;6305575;22;20062;-77
2022/01/31 11:24:18;;;;;;;4.47;2.42;;;;;;;9.40;29.01;99130.63;6306738;22;19999;-76
2022/01/31 11:26:50;;;;;;;7.78;3.25;;;;;;;9.39;28.55;99125.53;6278721;22;20017;-77
2022/01/31 11:29:17;;;;;;;7.32;2.78;;;;;;;9.40;29.65;99122.72;6305452;22;20360;-77
2022/01/31 11:31:44;;;;;;;10.38;3.58;;;;;;;9.41;29.78;99120.91;6278748;22;20022;-77
2022/01/31 11:34:09;;;;;;;6.35;2.50;;;;;;;9.17;29.49;99085.09;6306643;22;19995;-77
2022/01/31 11:36:37;;;;;;;3.67;1.75;;;;;;;9.30;29.02;99118.72;6306252;22;20061;-77
2022/01/31 11:39:06;;;;;;;7.22;3.13;;;;;;;9.34;29.45;99105.00;6306887;22;20006;-77
2022/01/31 11:41:33;;;;;;;4.35;2.72;;;;;;;9.37;29.40;99095.91;6278515;22;20005;-77
2022/01/31 11:44:13;;;;;;;6.35;2.45;;;;;;;9.19;28.29;99062.03;6305267;22;20348;-77
2022/01/31 11:46:40;;;;;;;6.25;3.00;;;;;;;9.16;29.26;99047.41;6305999;22;20391;-77
2022/01/31 11:49:15;;;;;;;7.03;3.28;;;;;;;9.17;28.92;99053.47;6305712;22;20018;-77
2022/01/31 11:52:07;;;;;;;7.38;2.80;;;;;;;9.41;28.83;99082.19;6303369;22;20006;-77
2022/01/31 11:54:36;;;;;;;5.28;2.60;;;;;;;9.35;28.69;99085.56;6277809;22;20057;-77
2022/01/31 11:57:12;;;;;;;9.20;4.38;;;;;;;9.45;27.99;99074.75;6304410;22;20053;-77
2022/01/31 11:59:39;;;;;;;9.13;3.95;;;;;;;9.08;28.64;99015.06;6277101;22;20064;-76
2022/01/31 12:02:04;;;;;;;8.63;3.97;;;;;;;9.40;28.58;99054.22;6304971;22;19999;-76
2022/01/31 12:04:34;;;;;;;7.28;2.90;;;;;;;9.53;28.25;99054.38;6305046;22;20129;-76